Time;durP1;ratioP1;P1;durP2;ratioP2;P2;SDS_P1;SDS_P2;PMS_P1;PMS_P2;Temp;Humidity;BMP_temperature;BMP_pressure;BME280_temperature;BME280_humidity;BME280_pressure;Samples;Min_cycle;Max_cycle;Signal;HPM_P1;HPM_P2
2022/09/06 00:00:38;;;;;;;22.65;11.90;;;;;;;-144.48;100.00;62369.91;4986761;28;20423;-69
2022/09/06 00:03:05;;;;;;;22.92;12.43;;;;;;;-144.48;100.00;62369.91;4989285;28;20023;-70
2022/09/06 00:05:31;;;;;;;24.40;12.52;;;;;;;-144.48;100.00;62369.91;4989025;28;20068;-70
2022/09/06 00:08:01;;;;;;;35.25;13.23;;;;;;;-144.48;100.00;62369.91;4989742;28;20064;-67
2022/09/06 00:10:28;;;;;;;19.23;11.75;;;;;;;-144.48;100.00;62369.91;4989270;28;20105;-70
2022/09/06 00:12:54;;;;;;;23.35;12.98;;;;;;;-144.48;100.00;62369.91;4989850;28;20409;-71
2022/09/06 00:15:21;;;;;;;35.13;13.50;;;;;;;-144.48;100.00;62369.91;4991598;28;20056;-70
2022/09/06 00:17:47;;;;;;;23.35;13.07;;;;;;;-144.48;100.00;62369.91;4990392;28;20022;-70
2022/09/06 00:20:13;;;;;;;29.80;12.10;;;;;;;-144.48;100.00;62369.91;4992118;28;20027;-70
2022/09/06 00:22:38;;;;;;;27.90;12.95;;;;;;;-144.48;100.00;62369.91;4991765;28;20109;-68
2022/09/06 00:25:05;;;;;;;27.08;13.85;;;;;;;-144.48;100.00;62369.91;4989488;28;20067;-71
2022/09/06 00:27:31;;;;;;;28.92;12.88;;;;;;;-144.48;100.00;62369.91;4985725;28;20031;-73
2022/09/06 00:29:57;;;;;;;26.40;13.07;;;;;;;-144.48;100.00;62369.91;4989956;28;20026;-69
2022/09/06 00:32:22;;;;;;;22.98;12.52;;;;;;;-144.48;100.00;62369.91;4989663;28;20022;-70
2022/09/06 00:34:47;;;;;;;25.52;12.85;;;;;;;-144.48;100.00;62369.91;4987883;28;20037;-68
2022/09/06 00:37:13;;;;;;;21.65;13.07;;;;;;;-144.48;100.00;62369.91;4988294;28;20022;-72
2022/09/06 00:39:38;;;;;;;29.70;13.25;;;;;;;-144.48;100.00;62369.91;4989044;28;20117;-68
2022/09/06 00:42:08;;;;;;;27.20;13.50;;;;;;;-144.48;100.00;62369.91;4989804;28;20109;-69
2022/09/06 00:44:33;;;;;;;29.60;13.80;;;;;;;-144.48;100.00;62369.91;4988517;28;20049;-70
2022/09/06 00:46:59;;;;;;;26.25;13.57;;;;;;;-144.48;100.00;62369.91;4988586;28;20503;-75
2022/09/06 00:49:29;;;;;;;34.38;14.68;;;;;;;-144.48;100.00;62369.91;4988983;28;20030;-69
2022/09/06 00:51:59;;;;;;;31.08;14.15;;;;;;;-144.48;100.00;62369.91;4989600;28;20350;-69
2022/09/06 00:54:26;;;;;;;24.58;13.23;;;;;;;-144.48;100.00;62369.91;4989263;28;20030;-70
2022/09/06 00:56:51;;;;;;;23.17;13.68;;;;;;;-144.48;100.00;62369.91;4988723;28;20109;-70
2022/09/06 00:59:17;;;;;;;29.10;13.77;;;;;;;-144.48;100.00;62369.91;4988837;28;20109;-69
2022/09/06 01:01:43;;;;;;;26.90;13.50;;;;;;;-144.48;100.00;62369.91;4983367;28;20038;-71
2022/09/06 01:04:09;;;;;;;26.60;12.93;;;;;;;-144.48;100.00;62369.91;4975683;28;20018;-70
2022/09/06 01:06:54;;;;;;;26.75;13.25;;;;;;;-144.48;100.00;62369.91;4989661;28;20088;-71
2022/09/06 01:09:40;;;;;;;27.15;12.73;;;;;;;-144.48;100.00;62369.91;4989562;28;20484;-70
2022/09/06 01:12:17;;;;;;;28.23;12.23;;;;;;;-144.48;100.00;62369.91;4989000;28;20038;-71
2022/09/06 01:15:15;;;;;;;27.48;14.27;;;;;;;-144.48;100.00;62369.91;4989304;28;20030;-71
2022/09/06 01:17:57;;;;;;;24.73;13.23;;;;;;;-144.48;100.00;62369.91;4966131;28;20038;-69
2022/09/06 01:20:34;;;;;;;29.33;13.80;;;;;;;-144.48;100.00;62369.91;4988984;28;20065;-73
2022/09/06 01:23:03;;;;;;;23.88;13.20;;;;;;;-144.48;100.00;62369.91;4989949;28;20101;-71
2022/09/06 01:25:35;;;;;;;;;;;;;;;-144.48;100.00;62369.91;4989182;28;20037;-70
2022/09/06 01:28:03;;;;;;;24.90;13.40;;;;;;;-144.48;100.00;62369.91;4988551;28;19918;-73
2022/09/06 01:30:32;;;;;;;26.17;13.15;;;;;;;-144.48;100.00;62369.91;4989936;28;20034;-70
2022/09/06 01:33:10;;;;;;;26.13;13.10;;;;;;;-144.48;100.00;62369.91;4987237;28;20031;-69
2022/09/06 01:35:52;;;;;;;23.13;12.27;;;;;;;-144.48;100.00;62369.91;4989268;28;20558;-69
2022/09/06 01:38:18;;;;;;;23.35;13.07;;;;;;;-144.48;100.00;62369.91;4988843;28;20872;-70
2022/09/06 01:40:43;;;;;;;24.52;13.63;;;;;;;-144.48;100.00;62369.91;4988984;28;20048;-69
2022/09/06 01:43:12;;;;;;;27.52;13.55;;;;;;;-144.48;100.00;62369.91;4988918;28;20022;-70
2022/09/06 01:46:02;;;;;;;28.17;14.88;;;;;;;-144.48;100.00;62369.91;4988125;28;20035;-71
2022/09/06 01:48:48;;;;;;;35.55;14.73;;;;;;;-144.48;100.00;62369.91;4976096;28;20507;-70
2022/09/06 01:51:36;;;;;;;26.02;13.25;;;;;;;-144.48;100.00;62369.91;4990850;28;20026;-72
2022/09/06 01:54:29;;;;;;;32.63;14.45;;;;;;;-144.48;100.00;62369.91;4996146;23;20050;-68
2022/09/06 01:57:26;;;;;;;27.70;13.55;;;;;;;-144.48;100.00;62369.91;4961131;28;20043;-67
2022/09/06 01:59:58;;;;;;;32.60;14.85;;;;;;;-144.48;100.00;62369.91;4958659;28;20023;-67
2022/09/06 02:02:28;;;;;;;25.15;13.85;;;;;;;-144.48;100.00;62369.91;4960167;28;20024;-66
2022/09/06 02:05:07;;;;;;;29.20;13.75;;;;;;;-144.48;100.00;62369.91;4945156;29;20452;-65
2022/09/06 02:07:35;;;;;;;27.95;14.60;;;;;;;-144.48;100.00;62369.91;4953235;28;20058;-69
2022/09/06 02:10:26;;;;;;;26.30;13.80;;;;;;;-144.48;100.00;62369.91;4953610;28;20043;-69
2022/09/06 02:12:55;;;;;;;23.15;12.48;;;;;;;-144.48;100.00;62369.91;4953935;28;20362;-69
2022/09/06 02:15:29;;;;;;;27.88;14.10;;;;;;;-144.48;100.00;62369.91;4953763;28;20078;-66
2022/09/06 02:18:18;;;;;;;25.63;12.80;;;;;;;-144.48;100.00;62369.91;4951350;28;20038;-68
2022/09/06 02:20:51;;;;;;;27.25;12.57;;;;;;;-144.48;100.00;62369.91;4940850;29;20042;-66
2022/09/06 02:23:19;;;;;;;26.90;14.32;;;;;;;-144.48;100.00;62369.91;4953569;28;20531;-68
2022/09/06 02:25:59;;;;;;;31.10;13.97;;;;;;;-144.48;100.00;62369.91;4947898;28;20031;-64
2022/09/06 02:28:25;;;;;;;24.00;13.93;;;;;;;-144.48;100.00;62369.91;4950187;28;20565;-68
2022/09/06 02:30:58;;;;;;;31.85;13.68;;;;;;;-144.48;100.00;62369.91;4953617;28;20102;-66
2022/09/06 02:33:28;;;;;;;29.35;13.15;;;;;;;-144.48;100.00;62369.91;4953446;28;20034;-68
2022/09/06 02:35:54;;;;;;;23.75;12.57;;;;;;;-144.48;100.00;62369.91;4953355;28;20100;-68
2022/09/06 02:38:22;;;;;;;25.55;15.23;;;;;;;-144.48;100.00;62369.91;4952790;28;20023;-68
2022/09/06 02:40:50;;;;;;;26.25;14.23;;;;;;;-144.48;100.00;62369.91;4952434;28;20031;-67
2022/09/06 02:43:16;;;;;;;24.20;13.80;;;;;;;-144.48;100.00;62369.91;4953847;28;20103;-67
2022/09/06 02:45:41;;;;;;;31.67;14.45;;;;;;;-144.48;100.00;62369.91;4953229;28;20159;-68
2022/09/06 02:48:06;;;;;;;37.90;13.55;;;;;;;-144.48;100.00;62369.91;4952277;28;20371;-68
2022/09/06 02:50:32;;;;;;;24.05;13.32;;;;;;;-144.48;100.00;62369.91;4953423;28;20485;-68
2022/09/06 02:53:08;;;;;;;40.58;14.15;;;;;;;-144.48;100.00;62369.91;4951801;28;20019;-67
2022/09/06 02:55:34;;;;;;;27.83;13.63;;;;;;;-144.48;100.00;62369.91;4951163;28;20494;-69
2022/09/06 02:58:00;;;;;;;28.58;13.70;;;;;;;-144.48;100.00;62369.91;4952032;28;20038;-66
2022/09/06 03:00:26;;;;;;;31.90;14.60;;;;;;;-144.48;100.00;62369.91;4945994;28;20625;-67
2022/09/06 03:02:51;;;;;;;32.42;14.40;;;;;;;-144.48;100.00;62369.91;4942287;28;20043;-66
2022/09/06 03:05:17;;;;;;;26.65;14.30;;;;;;;-144.48;100.00;62369.91;4936499;29;20046;-67
2022/09/06 03:07:42;;;;;;;46.83;16.15;;;;;;;-144.48;100.00;62369.91;4952181;28;20027;-68
2022/09/06 03:10:08;;;;;;;25.25;13.18;;;;;;;-144.48;100.00;62369.91;4951842;28;20110;-67
2022/09/06 03:12:34;;;;;;;25.50;13.15;;;;;;;-144.48;100.00;62369.91;4950827;28;20069;-68
2022/09/06 03:14:59;;;;;;;27.80;13.05;;;;;;;-144.48;100.00;62369.91;4952117;28;20031;-67
2022/09/06 03:17:24;;;;;;;29.52;14.07;;;;;;;-144.48;100.00;62369.91;4951158;28;20146;-68
2022/09/06 03:19:50;;;;;;;33.33;13.38;;;;;;;-144.48;100.00;62369.91;4952326;28;20110;-68
2022/09/06 03:22:15;;;;;;;30.63;14.65;;;;;;;-144.48;100.00;62369.91;4951993;28;20492;-67
2022/09/06 03:24:40;;;;;;;31.67;14.52;;;;;;;-144.48;100.00;62369.91;4951766;28;20027;-67
2022/09/06 03:27:06;;;;;;;24.67;14.20;;;;;;;-144.48;100.00;62369.91;4938798;29;20434;-66
2022/09/06 03:29:31;;;;;;;34.53;15.30;;;;;;;-144.48;100.00;62369.91;4950701;28;20035;-67
2022/09/06 03:31:56;;;;;;;27.60;14.02;;;;;;;-144.48;100.00;62369.91;4938218;29;20508;-68
2022/09/06 03:34:22;;;;;;;34.45;14.05;;;;;;;-144.48;100.00;62369.91;4952358;28;20023;-66
2022/09/06 03:36:47;;;;;;;28.85;14.55;;;;;;;-144.48;100.00;62369.91;4950958;28;20031;-65
2022/09/06 03:39:12;;;;;;;34.00;14.68;;;;;;;-144.48;100.00;62369.91;4951704;28;20481;-68
2022/09/06 03:41:37;;;;;;;31.70;14.60;;;;;;;-144.48;100.00;62369.91;4950045;28;20062;-66
2022/09/06 03:44:03;;;;;;;47.42;15.48;;;;;;;-144.48;100.00;62369.91;4951937;28;20110;-71
2022/09/06 03:46:29;;;;;;;26.50;15.15;;;;;;;-144.48;100.00;62369.91;4951178;28;20034;-67
2022/09/06 03:48:58;;;;;;;33.22;14.88;;;;;;;-144.48;100.00;62369.91;4951448;28;20039;-64
2022/09/06 03:51:23;;;;;;;;;;;;;;;-144.48;100.00;62369.91;4951342;28;20027;-64
2022/09/06 03:53:49;;;;;;;28.98;14.80;;;;;;;-144.48;100.00;62369.91;4948285;28;19918;-67
2022/09/06 03:56:14;;;;;;;27.83;14.20;;;;;;;-144.48;100.00;62369.91;4950774;28;20140;-68
2022/09/06 03:58:39;;;;;;;27.10;14.18;;;;;;;-144.48;100.00;62369.91;4951342;28;20110;-66
2022/09/06 04:01:08;;;;;;;32.15;14.77;;;;;;;-144.48;100.00;62369.91;4945701;28;20050;-65
2022/09/06 04:03:35;;;;;;;32.95;14.45;;;;;;;-144.48;100.00;62369.91;4938615;28;20049;-67
2022/09/06 04:06:01;;;;;;;30.75;15.68;;;;;;;-144.48;100.00;62369.91;4951013;28;20037;-67
2022/09/06 04:08:26;;;;;;;31.13;14.07;;;;;;;-144.48;100.00;62369.91;4950986;28;20019;-69
2022/09/06 04:10:53;;;;;;;28.40;15.07;;;;;;;-144.48;100.00;62369.91;4950655;28;20039;-69
2022/09/06 04:13:20;;;;;;;37.60;14.43;;;;;;;-144.48;100.00;62369.91;4950748;28;20412;-67
2022/09/06 04:15:46;;;;;;;33.33;15.18;;;;;;;-144.48;100.00;62369.91;4951425;28;20034;-68
2022/09/06 04:18:12;;;;;;;30.75;14.82;;;;;;;-144.48;100.00;62369.91;4949948;28;20470;-68
2022/09/06 04:20:37;;;;;;;29.33;14.60;;;;;;;-144.48;100.00;62369.91;4950648;28;20138;-66
2022/09/06 04:23:02;;;;;;;29.05;14.23;;;;;;;-144.48;100.00;62369.91;4951479;28;20382;-68
2022/09/06 04:25:28;;;;;;;41.08;16.30;;;;;;;-144.48;100.00;62369.91;4947663;28;20046;-67
2022/09/06 04:27:53;;;;;;;30.23;14.57;;;;;;;-144.48;100.00;62369.91;4943775;29;20023;-67
2022/09/06 04:30:19;;;;;;;30.02;14.25;;;;;;;-144.48;100.00;62369.91;4951615;28;20037;-69
2022/09/06 04:32:44;;;;;;;24.63;14.57;;;;;;;-144.48;100.00;62369.91;4950537;28;20396;-68
2022/09/06 04:35:09;;;;;;;26.50;14.88;;;;;;;-144.48;100.00;62369.91;4951264;28;20062;-68
2022/09/06 04:37:34;;;;;;;38.50;15.23;;;;;;;-144.48;100.00;62369.91;4950600;28;20069;-66
2022/09/06 04:40:00;;;;;;;25.40;14.30;;;;;;;-144.48;100.00;62369.91;4949203;28;20062;-69
2022/09/06 04:42:25;;;;;;;37.45;15.02;;;;;;;-144.48;100.00;62369.91;4950592;28;20079;-69
2022/09/06 04:44:51;;;;;;;33.55;14.85;;;;;;;-144.48;100.00;62369.91;4950586;28;20027;-68
2022/09/06 04:47:18;;;;;;;34.10;15.25;;;;;;;-144.48;100.00;62369.91;4949807;28;20038;-66
2022/09/06 04:49:44;;;;;;;36.85;15.93;;;;;;;-144.48;100.00;62369.91;4950685;28;20470;-67
2022/09/06 04:52:10;;;;;;;31.50;15.02;;;;;;;-144.48;100.00;62369.91;4950468;28;20027;-68
2022/09/06 04:54:36;;;;;;;42.67;15.80;;;;;;;-144.48;100.00;62369.91;4950650;28;20105;-67
2022/09/06 04:57:02;;;;;;;27.52;14.63;;;;;;;-144.48;100.00;62369.91;4949469;28;20035;-69
2022/09/06 04:59:27;;;;;;;40.72;15.20;;;;;;;-144.48;100.00;62369.91;4951917;28;20039;-66
2022/09/06 05:01:52;;;;;;;31.98;13.60;;;;;;;-144.48;100.00;62369.91;4945057;28;20023;-69
2022/09/06 05:04:18;;;;;;;33.97;16.63;;;;;;;-144.48;100.00;62369.91;4932799;28;20636;-68
2022/09/06 05:06:44;;;;;;;31.83;15.02;;;;;;;-144.48;100.00;62369.91;4942713;29;20031;-67
2022/09/06 05:09:10;;;;;;;39.22;14.63;;;;;;;-144.48;100.00;62369.91;4947572;28;20027;-70
2022/09/06 05:11:35;;;;;;;29.98;14.98;;;;;;;-144.48;100.00;62369.91;4950298;28;20042;-69
2022/09/06 05:14:01;;;;;;;42.75;15.30;;;;;;;-144.48;100.00;62369.91;4950388;28;20115;-69
2022/09/06 05:16:26;;;;;;;34.28;14.23;;;;;;;-144.48;100.00;62369.91;4950027;28;20104;-69
2022/09/06 05:18:51;;;;;;;36.75;14.82;;;;;;;-144.48;100.00;62369.91;4950972;28;20115;-70
2022/09/06 05:21:16;;;;;;;24.48;13.52;;;;;;;-144.48;100.00;62369.91;4948922;28;20362;-70
2022/09/06 05:23:42;;;;;;;31.58;13.75;;;;;;;-144.48;100.00;62369.91;4937538;28;20031;-72
2022/09/06 05:26:07;;;;;;;28.92;14.27;;;;;;;-144.48;100.00;62369.91;4951177;28;20474;-71
2022/09/06 05:28:33;;;;;;;38.85;14.38;;;;;;;-144.48;100.00;62369.91;4948618;28;20094;-69
2022/09/06 05:31:21;;;;;;;27.30;13.10;;;;;;;-144.48;100.00;62369.91;4955885;28;20404;-68
2022/09/06 05:33:46;;;;;;;28.75;13.77;;;;;;;-144.48;100.00;62369.91;4955803;28;20034;-68
2022/09/06 05:36:12;;;;;;;36.13;14.45;;;;;;;-144.48;100.00;62369.91;4952791;28;20114;-72
2022/09/06 05:38:37;;;;;;;29.67;14.70;;;;;;;-144.48;100.00;62369.91;4954532;28;20561;-67
2022/09/06 05:41:02;;;;;;;26.48;13.77;;;;;;;-144.48;100.00;62369.91;4953275;28;20043;-66
2022/09/06 05:43:28;;;;;;;38.47;15.52;;;;;;;-144.48;100.00;62369.91;4954436;28;20015;-72
2022/09/06 05:45:53;;;;;;;29.58;14.85;;;;;;;-144.48;100.00;62369.91;4954475;28;20027;-68
2022/09/06 05:48:18;;;;;;;30.00;14.57;;;;;;;-144.48;100.00;62369.91;4953491;28;20139;-71
2022/09/06 05:50:44;;;;;;;27.98;13.98;;;;;;;-144.48;100.00;62369.91;4954685;28;20560;-69
2022/09/06 05:53:09;;;;;;;30.52;14.50;;;;;;;-144.48;100.00;62369.91;4935266;29;20558;-71
2022/09/06 05:55:35;;;;;;;32.42;15.00;;;;;;;-144.48;100.00;62369.91;4950405;28;20560;-68
2022/09/06 05:58:00;;;;;;;35.53;14.50;;;;;;;-144.48;100.00;62369.91;4952493;28;20113;-69
2022/09/06 06:00:25;;;;;;;31.88;15.30;;;;;;;-144.48;100.00;62369.91;4951022;28;20027;-68
2022/09/06 06:02:51;;;;;;;29.90;15.10;;;;;;;-144.48;100.00;62369.91;4953464;28;20046;-70
2022/09/06 06:05:16;;;;;;;24.52;13.48;;;;;;;-144.48;100.00;62369.91;4953637;28;20050;-67
2022/09/06 06:07:41;;;;;;;31.98;16.10;;;;;;;-144.48;100.00;62369.91;4952965;28;20508;-68
2022/09/06 06:10:07;;;;;;;26.60;14.90;;;;;;;-144.48;100.00;62369.91;4953243;28;20089;-70
2022/09/06 06:12:33;;;;;;;29.00;15.57;;;;;;;-144.48;100.00;62369.91;4952614;28;20040;-69
2022/09/06 06:14:58;;;;;;;30.80;15.25;;;;;;;-144.48;100.00;62369.91;4953600;28;20058;-68
2022/09/06 06:17:23;;;;;;;28.00;15.98;;;;;;;-144.48;100.00;62369.91;4952600;28;20027;-67
2022/09/06 06:19:49;;;;;;;29.17;14.90;;;;;;;-144.48;100.00;62369.91;4952955;28;20582;-67
2022/09/06 06:22:14;;;;;;;41.50;15.63;;;;;;;-144.48;100.00;62369.91;4953102;28;20427;-69
2022/09/06 06:24:39;;;;;;;37.58;15.65;;;;;;;-144.48;100.00;62369.91;4952690;28;20031;-68
2022/09/06 06:27:05;;;;;;;40.92;16.30;;;;;;;-144.48;100.00;62369.91;4950767;28;20039;-68
2022/09/06 06:29:30;;;;;;;34.72;15.80;;;;;;;-144.48;100.00;62369.91;4940952;28;20028;-70
2022/09/06 06:31:55;;;;;;;32.95;16.50;;;;;;;-144.48;100.00;62369.91;4952840;29;20023;-66
2022/09/06 06:34:21;;;;;;;31.00;16.65;;;;;;;-144.48;100.00;62369.91;4953442;28;20107;-70
2022/09/06 06:36:47;;;;;;;42.10;15.98;;;;;;;-144.48;100.00;62369.91;4950227;28;20030;-68
2022/09/06 06:39:12;;;;;;;38.58;17.13;;;;;;;-144.48;100.00;62369.91;4951790;28;20102;-68
2022/09/06 06:41:37;;;;;;;47.30;15.48;;;;;;;-144.48;100.00;62369.91;4953883;28;20038;-69
2022/09/06 06:44:04;;;;;;;31.88;15.73;;;;;;;-144.48;100.00;62369.91;4953057;28;20139;-69
2022/09/06 06:46:36;;;;;;;29.45;14.60;;;;;;;-144.48;100.00;62369.91;4952562;28;20035;-69
2022/09/06 06:49:01;;;;;;;33.55;14.70;;;;;;;-144.48;100.00;62369.91;4953355;28;20094;-70
2022/09/06 06:51:31;;;;;;;52.60;15.50;;;;;;;-144.48;100.00;62369.91;4946269;28;20486;-72
2022/09/06 06:53:57;;;;;;;31.25;15.88;;;;;;;-144.48;100.00;62369.91;4942470;28;20669;-69
2022/09/06 06:56:26;;;;;;;31.40;15.43;;;;;;;-144.48;100.00;62369.91;4949377;28;20031;-71
2022/09/06 06:58:57;;;;;;;41.58;15.48;;;;;;;-144.48;100.00;62369.91;4960386;28;20118;-71
2022/09/06 07:01:23;;;;;;;30.83;15.50;;;;;;;-144.48;100.00;62369.91;4953701;28;20038;-70
2022/09/06 07:03:49;;;;;;;28.88;14.70;;;;;;;-144.48;100.00;62369.91;4953923;28;20035;-71
2022/09/06 07:06:16;;;;;;;39.15;16.25;;;;;;;-144.48;100.00;62369.91;4957709;28;20476;-68
2022/09/06 07:08:41;;;;;;;35.65;14.80;;;;;;;-144.48;100.00;62369.91;4955914;28;20038;-69
2022/09/06 07:11:09;;;;;;;29.67;14.43;;;;;;;-144.48;100.00;62369.91;4953163;28;20090;-68
2022/09/06 07:13:35;;;;;;;39.78;15.27;;;;;;;-144.48;100.00;62369.91;4953187;28;20030;-69
2022/09/06 07:16:22;;;;;;;26.60;14.25;;;;;;;-144.48;100.00;62369.91;4953132;28;20063;-70
2022/09/06 07:18:54;;;;;;;27.67;13.82;;;;;;;-144.48;100.00;62369.91;4955362;28;20053;-70
2022/09/06 07:21:25;;;;;;;35.83;14.68;;;;;;;-144.48;100.00;62369.91;4951798;28;20125;-70
2022/09/06 07:23:52;;;;;;;27.23;14.75;;;;;;;-144.48;100.00;62369.91;4952632;28;20038;-69
2022/09/06 07:26:20;;;;;;;34.47;15.98;;;;;;;-144.48;100.00;62369.91;4952097;28;20058;-73
2022/09/06 07:28:45;;;;;;;36.95;14.07;;;;;;;-144.48;100.00;62369.91;4954427;28;20039;-69
2022/09/06 07:31:11;;;;;;;55.40;17.45;;;;;;;-144.48;100.00;62369.91;4955133;28;20045;-71
2022/09/06 07:33:38;;;;;;;35.40;15.40;;;;;;;-144.48;100.00;62369.91;4953481;28;20077;-70
2022/09/06 07:36:06;;;;;;;39.17;15.50;;;;;;;-144.48;100.00;62369.91;4961316;28;20504;-70
2022/09/06 07:38:32;;;;;;;32.92;15.30;;;;;;;-144.48;100.00;62369.91;4954100;28;20027;-69
2022/09/06 07:41:03;;;;;;;28.90;14.40;;;;;;;-144.48;100.00;62369.91;4954201;28;20031;-68
2022/09/06 07:43:29;;;;;;;31.90;14.25;;;;;;;-144.48;100.00;62369.91;4954386;28;20023;-70
2022/09/06 07:46:15;;;;;;;31.73;14.32;;;;;;;-144.48;100.00;62369.91;4951536;28;20027;-70
2022/09/06 07:48:43;;;;;;;34.75;14.23;;;;;;;-144.48;100.00;62369.91;4951702;28;21197;-67
2022/09/06 07:51:11;;;;;;;29.85;13.02;;;;;;;-144.48;100.00;62369.91;4952090;28;20031;-69
2022/09/06 07:56:22;;;;;;;27.15;13.82;;;;;;;-144.48;100.00;62369.91;4980626;28;20507;-69
2022/09/06 07:58:48;;;;;;;29.98;13.85;;;;;;;-144.48;100.00;62369.91;4982844;28;20050;-68
2022/09/06 08:01:37;;;;;;;32.85;13.77;;;;;;;-144.48;100.00;62369.91;4983571;28;20041;-68
2022/09/06 08:04:12;;;;;;;;;;;;;;;-144.48;100.00;62369.91;4982448;28;20023;-68
2022/09/06 08:06:41;;;;;;;39.13;13.43;;;;;;;-144.48;100.00;62369.91;4999554;28;20385;-68
2022/09/06 08:09:08;;;;;;;36.85;14.57;;;;;;;-144.48;100.00;62369.91;5001557;28;20103;-68
2022/09/06 08:11:34;;;;;;;27.63;14.10;;;;;;;-144.48;100.00;62369.91;5001422;28;20606;-67
2022/09/06 08:14:02;;;;;;;33.17;13.45;;;;;;;-144.48;100.00;62369.91;5001078;28;20022;-68
2022/09/06 08:16:29;;;;;;;41.22;14.63;;;;;;;-144.48;100.00;62369.91;5002122;28;20036;-68
2022/09/06 08:18:59;;;;;;;29.48;13.45;;;;;;;-144.48;100.00;62369.91;5002323;28;20025;-69
2022/09/06 08:21:27;;;;;;;34.72;13.85;;;;;;;-144.48;100.00;62369.91;5002283;28;20486;-68
2022/09/06 08:23:56;;;;;;;38.40;13.20;;;;;;;-144.48;100.00;62369.91;5000709;28;20233;-67
2022/09/06 08:26:23;;;;;;;32.83;13.70;;;;;;;-144.48;100.00;62369.91;5000851;28;20033;-69
2022/09/06 08:28:58;;;;;;;36.25;13.43;;;;;;;-144.48;100.00;62369.91;5002394;28;20380;-68
2022/09/06 08:31:25;;;;;;;36.15;13.77;;;;;;;-144.48;100.00;62369.91;5001971;28;20554;-67
2022/09/06 08:33:51;;;;;;;27.25;12.63;;;;;;;-144.48;100.00;62369.91;5000386;28;20407;-69
2022/09/06 08:36:16;;;;;;;29.70;14.23;;;;;;;-144.48;100.00;62369.91;5001984;28;20491;-69
2022/09/06 08:38:41;;;;;;;28.42;12.77;;;;;;;-144.48;100.00;62369.91;5002410;28;20053;-70
2022/09/06 08:41:24;;;;;;;30.30;13.05;;;;;;;-144.48;100.00;62369.91;5002574;28;20026;-68
2022/09/06 08:43:55;;;;;;;28.00;11.60;;;;;;;-144.48;100.00;62369.91;5001241;28;20125;-69
2022/09/06 08:46:28;;;;;;;44.47;13.88;;;;;;;-144.48;100.00;62369.91;5002312;28;20734;-69
2022/09/06 08:48:54;;;;;;;28.40;13.15;;;;;;;-144.48;100.00;62369.91;5002363;28;20540;-67
2022/09/06 08:51:36;;;;;;;26.48;13.18;;;;;;;-144.48;100.00;62369.91;5001739;28;20097;-68
2022/09/06 08:54:33;;;;;;;25.63;12.98;;;;;;;-144.48;100.00;62369.91;4999864;28;20132;-69
2022/09/06 08:57:04;;;;;;;32.65;13.40;;;;;;;-144.48;100.00;62369.91;4996595;28;20116;-69
2022/09/06 08:59:37;;;;;;;31.95;12.45;;;;;;;-144.48;100.00;62369.91;5012549;28;20116;-68
2022/09/06 09:02:20;;;;;;;36.80;13.85;;;;;;;-144.48;100.00;62369.91;5005067;28;20117;-68
2022/09/06 09:04:54;;;;;;;34.25;12.55;;;;;;;-144.48;100.00;62369.91;5004902;28;20029;-70
2022/09/06 09:07:28;;;;;;;25.80;11.68;;;;;;;-144.48;100.00;62369.91;5005315;28;20038;-66
2022/09/06 09:09:55;;;;;;;25.63;13.52;;;;;;;-144.48;100.00;62369.91;5006421;28;20034;-69
2022/09/06 09:12:23;;;;;;;36.78;13.65;;;;;;;-144.48;100.00;62369.91;5004912;28;20376;-67
2022/09/06 09:14:54;;;;;;;33.28;12.95;;;;;;;-144.48;100.00;62369.91;5006253;28;20041;-67
2022/09/06 09:17:30;;;;;;;24.40;11.68;;;;;;;-144.48;100.00;62369.91;5004003;28;20660;-67
2022/09/06 09:19:55;;;;;;;31.80;12.95;;;;;;;-144.48;100.00;62369.91;5005054;28;20715;-69
2022/09/06 09:22:23;;;;;;;24.73;12.25;;;;;;;-144.48;100.00;62369.91;5004259;28;20133;-67
2022/09/06 09:24:50;;;;;;;25.33;13.38;;;;;;;-144.48;100.00;62369.91;5005489;28;20148;-69
2022/09/06 09:27:18;;;;;;;34.97;13.52;;;;;;;-144.48;100.00;62369.91;5004096;28;20041;-70
2022/09/06 09:29:53;;;;;;;22.23;11.43;;;;;;;-144.48;100.00;62369.91;5005332;28;20092;-66
2022/09/06 09:32:33;;;;;;;27.35;12.57;;;;;;;-144.48;100.00;62369.91;5005009;28;20048;-69
2022/09/06 09:35:28;;;;;;;27.23;11.85;;;;;;;-144.48;100.00;62369.91;5003785;28;20396;-69
2022/09/06 09:38:05;;;;;;;37.83;13.48;;;;;;;-144.48;100.00;62369.91;4987802;28;20204;-68
2022/09/06 09:40:34;;;;;;;26.45;11.27;;;;;;;-144.48;100.00;62369.91;5004012;28;20037;-69
2022/09/06 09:43:23;;;;;;;27.17;12.98;;;;;;;-144.48;100.00;62369.91;5004242;28;20053;-68
2022/09/06 09:46:07;;;;;;;27.55;11.98;;;;;;;-144.48;100.00;62369.91;5006068;28;20045;-68
2022/09/06 09:48:32;;;;;;;25.90;12.30;;;;;;;-144.48;100.00;62369.91;5003687;28;20034;-68
2022/09/06 09:51:17;;;;;;;24.50;11.32;;;;;;;-144.48;100.00;62369.91;5005156;28;20032;-69
2022/09/06 09:54:03;;;;;;;30.60;12.82;;;;;;;-144.48;100.00;62369.91;5004103;28;20113;-69
2022/09/06 09:56:44;;;;;;;31.42;13.25;;;;;;;-144.48;100.00;62369.91;5003233;28;21196;-69
2022/09/06 09:59:18;;;;;;;23.92;11.05;;;;;;;-144.48;100.00;62369.91;5004949;28;20471;-69
2022/09/06 10:01:43;;;;;;;39.40;11.95;;;;;;;-144.48;100.00;62369.91;5005654;28;20491;-69
2022/09/06 10:04:11;;;;;;;23.35;11.98;;;;;;;-144.48;100.00;62369.91;5001847;28;20045;-68
2022/09/06 10:06:37;;;;;;;23.43;11.10;;;;;;;-144.48;100.00;62369.91;5003265;28;20033;-69
2022/09/06 10:09:19;;;;;;;32.97;11.20;;;;;;;-144.48;100.00;62369.91;5004022;28;20109;-69
2022/09/06 10:11:56;;;;;;;39.33;12.48;;;;;;;-144.48;100.00;62369.91;5004721;28;20120;-68
2022/09/06 10:14:25;;;;;;;30.92;10.95;;;;;;;-144.48;100.00;62369.91;5003571;28;20038;-68
2022/09/06 10:16:51;;;;;;;28.50;10.68;;;;;;;-144.48;100.00;62369.91;5004354;28;20046;-69
2022/09/06 10:19:44;;;;;;;31.20;11.70;;;;;;;-144.48;100.00;62369.91;5004589;28;20045;-68
2022/09/06 10:22:18;;;;;;;25.50;10.73;;;;;;;-144.48;100.00;62369.91;5002992;28;20045;-68
2022/09/06 10:25:02;;;;;;;33.50;10.98;;;;;;;-144.48;100.00;62369.91;5004100;28;20040;-67
2022/09/06 10:27:27;;;;;;;29.92;11.48;;;;;;;-144.48;100.00;62369.91;5000611;28;20033;-69
2022/09/06 10:30:00;;;;;;;27.70;9.45;;;;;;;-144.48;100.00;62369.91;5004567;28;20042;-69
2022/09/06 10:32:44;;;;;;;22.00;12.15;;;;;;;-144.48;100.00;62369.91;5003548;28;20067;-67
2022/09/06 10:35:30;;;;;;;27.30;10.18;;;;;;;-144.48;100.00;62369.91;5002972;28;20511;-68
2022/09/06 10:38:19;;;;;;;23.95;9.80;;;;;;;-144.48;100.00;62369.91;5004187;28;20040;-68
2022/09/06 10:40:48;;;;;;;25.15;10.45;;;;;;;-144.48;100.00;62369.91;5002451;28;20574;-70
2022/09/06 10:43:17;;;;;;;22.05;9.60;;;;;;;-144.48;100.00;62369.91;5004421;28;20037;-70
2022/09/06 10:45:46;;;;;;;17.52;9.13;;;;;;;-144.48;100.00;62369.91;5004844;28;20042;-68
2022/09/06 10:48:25;;;;;;;21.42;10.38;;;;;;;-144.48;100.00;62369.91;5003050;28;20026;-68
2022/09/06 10:50:56;;;;;;;26.25;8.57;;;;;;;-144.48;100.00;62369.91;5003897;28;20113;-72
2022/09/06 10:53:30;;;;;;;29.88;9.18;;;;;;;-144.48;100.00;62369.91;5002703;28;20026;-69
2022/09/06 10:56:04;;;;;;;26.60;10.55;;;;;;;-144.48;100.00;62369.91;5004122;28;20050;-69
2022/09/06 10:58:37;;;;;;;23.13;8.82;;;;;;;-144.48;100.00;62369.91;5002264;28;20368;-68
2022/09/06 11:01:04;;;;;;;24.95;9.75;;;;;;;-144.48;100.00;62369.91;5003148;28;20034;-66
2022/09/06 11:03:37;;;;;;;24.70;10.43;;;;;;;-144.48;100.00;62369.91;5002999;28;20079;-67
2022/09/06 11:06:07;;;;;;;28.73;12.30;;;;;;;-144.48;100.00;62369.91;5003301;28;20360;-67
2022/09/06 11:08:42;;;;;;;26.27;10.50;;;;;;;-144.48;100.00;62369.91;5003880;28;20021;-69